Time;durP1;ratioP1;P1;durP2;ratioP2;P2;SDS_P1;SDS_P2;PMS_P1;PMS_P2;Temp;Humidity;BMP_temperature;BMP_pressure;BME280_temperature;BME280_humidity;BME280_pressure;Samples;Min_cycle;Max_cycle;Signal;HPM_P1;HPM_P2
2023/05/09 00:01:11;;;;;;;51.85;25.60;;;;;;;;;;5065348;28;21583;-59
2023/05/09 00:03:38;;;;;;;44.88;25.30;;;;;;;;;;5075357;28;20646;-60
2023/05/09 00:06:05;;;;;;;51.00;25.75;;;;;;;;;;5073795;28;20052;-58
2023/05/09 00:08:32;;;;;;;51.67;26.02;;;;;;;;;;5075078;28;20482;-58
2023/05/09 00:10:58;;;;;;;48.50;25.27;;;;;;;;;;5062027;28;20056;-59
2023/05/09 00:13:25;;;;;;;51.38;26.35;;;;;;;;;;5063168;28;20052;-59
2023/05/09 00:15:57;;;;;;;46.40;25.90;;;;;;;;;;5071055;28;20057;-59
2023/05/09 00:18:23;;;;;;;56.17;27.23;;;;;;;;;;5079323;28;20484;-59
2023/05/09 00:20:50;;;;;;;53.88;27.50;;;;;;;;;;5072278;28;20053;-59
2023/05/09 00:23:16;;;;;;;50.38;25.70;;;;;;;;;;5073658;28;20408;-59
2023/05/09 00:25:43;;;;;;;48.28;25.27;;;;;;;;;;5063900;28;20111;-59
2023/05/09 00:28:09;;;;;;;52.53;27.13;;;;;;;;;;5064413;28;20049;-59
2023/05/09 00:30:36;;;;;;;49.30;26.60;;;;;;;;;;5061321;28;20064;-60
2023/05/09 00:33:02;;;;;;;50.85;26.08;;;;;;;;;;5062509;28;20122;-57
2023/05/09 00:35:31;;;;;;;49.90;26.23;;;;;;;;;;5071921;28;20087;-58
2023/05/09 00:37:58;;;;;;;52.95;27.52;;;;;;;;;;5073703;28;20071;-59
2023/05/09 00:40:25;;;;;;;51.67;27.45;;;;;;;;;;5062939;28;20150;-58
2023/05/09 00:42:51;;;;;;;43.88;25.38;;;;;;;;;;5058932;28;20056;-58
2023/05/09 00:45:18;;;;;;;49.00;26.50;;;;;;;;;;5058734;28;20116;-60
2023/05/09 00:47:44;;;;;;;48.38;25.90;;;;;;;;;;5072912;28;20131;-59
2023/05/09 00:50:10;;;;;;;52.22;26.30;;;;;;;;;;5075757;28;20056;-60
2023/05/09 00:52:37;;;;;;;52.35;27.58;;;;;;;;;;5066865;28;20053;-57
2023/05/09 00:55:05;;;;;;;51.05;26.85;;;;;;;;;;5075216;28;20065;-59
2023/05/09 00:57:32;;;;;;;53.40;26.50;;;;;;;;;;5068174;28;20314;-59
2023/05/09 00:59:59;;;;;;;54.50;27.88;;;;;;;;;;5062877;28;20049;-58
2023/05/09 01:02:26;;;;;;;51.25;26.95;;;;;;;;;;5064903;28;20052;-59
2023/05/09 01:04:52;;;;;;;54.08;27.17;;;;;;;;;;5061556;28;20049;-59
2023/05/09 01:07:45;;;;;;;56.85;28.95;;;;;;;;;;5060641;28;20518;-59
2023/05/09 01:10:14;;;;;;;55.03;27.95;;;;;;;;;;5061979;28;20057;-59
2023/05/09 01:12:53;;;;;;;52.60;25.80;;;;;;;;;;5059772;28;20538;-59
2023/05/09 01:15:25;;;;;;;52.17;26.83;;;;;;;;;;5065644;28;20752;-58
2023/05/09 01:18:11;;;;;;;53.40;27.27;;;;;;;;;;5073390;28;20612;-59
2023/05/09 01:20:45;;;;;;;53.85;27.08;;;;;;;;;;5059274;28;20068;-57
2023/05/09 01:23:17;;;;;;;54.92;27.92;;;;;;;;;;5061472;28;20057;-59
2023/05/09 01:25:53;;;;;;;55.53;27.58;;;;;;;;;;5064074;28;20052;-59
2023/05/09 01:28:38;;;;;;;49.30;26.75;;;;;;;;;;5066141;28;20064;-59
2023/05/09 01:31:06;;;;;;;50.60;26.63;;;;;;;;;;5074628;28;20605;-59
2023/05/09 01:33:35;;;;;;;52.70;28.15;;;;;;;;;;5071459;28;20470;-58
2023/05/09 01:36:03;;;;;;;50.72;25.30;;;;;;;;;;5068085;28;20392;-60
2023/05/09 01:38:31;;;;;;;48.45;25.92;;;;;;;;;;5060799;28;20511;-58
2023/05/09 01:40:58;;;;;;;52.05;27.70;;;;;;;;;;5076713;28;20049;-60
2023/05/09 01:43:26;;;;;;;55.15;27.45;;;;;;;;;;5072300;28;20044;-59
2023/05/09 01:45:54;;;;;;;51.97;28.33;;;;;;;;;;5061967;28;20057;-59
2023/05/09 01:48:20;;;;;;;52.95;27.70;;;;;;;;;;5061065;28;20149;-56
2023/05/09 01:50:47;;;;;;;48.75;27.45;;;;;;;;;;5051506;28;20532;-58
2023/05/09 01:53:15;;;;;;;55.92;28.90;;;;;;;;;;5059608;28;20076;-58
2023/05/09 01:55:42;;;;;;;50.15;27.67;;;;;;;;;;5080134;28;20055;-58
2023/05/09 01:58:09;;;;;;;54.95;26.42;;;;;;;;;;5061660;28;20500;-60
2023/05/09 02:00:36;;;;;;;57.47;29.00;;;;;;;;;;5064467;28;20426;-59
2023/05/09 02:03:02;;;;;;;54.97;28.40;;;;;;;;;;5074113;28;20060;-57
2023/05/09 02:05:29;;;;;;;56.78;27.77;;;;;;;;;;5076772;28;20052;-54
2023/05/09 02:07:57;;;;;;;57.05;29.48;;;;;;;;;;5061728;28;20140;-58
2023/05/09 02:10:25;;;;;;;52.78;28.65;;;;;;;;;;5062151;28;20053;-59
2023/05/09 02:12:52;;;;;;;56.85;27.48;;;;;;;;;;5060241;28;20053;-58
2023/05/09 02:15:19;;;;;;;55.72;27.67;;;;;;;;;;5067307;28;20106;-59
2023/05/09 02:17:46;;;;;;;60.03;28.92;;;;;;;;;;5067915;28;20562;-58
2023/05/09 02:20:13;;;;;;;51.92;26.88;;;;;;;;;;5070985;28;20608;-59
2023/05/09 02:22:40;;;;;;;56.75;27.88;;;;;;;;;;5061929;28;20140;-59
2023/05/09 02:25:09;;;;;;;52.50;26.80;;;;;;;;;;5068108;28;20049;-60
2023/05/09 02:27:37;;;;;;;54.90;26.80;;;;;;;;;;5067713;28;20595;-59
2023/05/09 02:30:06;;;;;;;54.33;27.45;;;;;;;;;;5064159;28;20510;-60
2023/05/09 02:32:33;;;;;;;53.47;27.23;;;;;;;;;;5078858;28;20562;-60
2023/05/09 02:35:00;;;;;;;53.20;28.10;;;;;;;;;;5068536;28;20569;-60
2023/05/09 02:37:27;;;;;;;54.72;28.92;;;;;;;;;;5073266;28;20099;-60
2023/05/09 02:39:55;;;;;;;52.15;26.63;;;;;;;;;;5057564;28;20064;-60
2023/05/09 02:42:24;;;;;;;58.15;28.50;;;;;;;;;;5060012;28;20084;-59
2023/05/09 02:44:51;;;;;;;51.25;25.80;;;;;;;;;;5068034;28;20063;-56
2023/05/09 02:47:17;;;;;;;53.53;28.27;;;;;;;;;;5061819;28;20049;-59
2023/05/09 02:49:44;;;;;;;52.60;28.20;;;;;;;;;;5069621;28;20060;-59
2023/05/09 02:52:10;;;;;;;52.55;27.10;;;;;;;;;;5074843;28;20055;-59
2023/05/09 02:54:37;;;;;;;52.72;27.05;;;;;;;;;;5063500;28;20555;-58
2023/05/09 02:57:03;;;;;;;56.78;27.60;;;;;;;;;;5060052;28;20056;-59
2023/05/09 02:59:30;;;;;;;54.95;28.23;;;;;;;;;;5060695;28;20061;-59
2023/05/09 03:01:57;;;;;;;55.78;28.20;;;;;;;;;;5063204;28;20084;-58
2023/05/09 03:04:27;;;;;;;53.58;27.45;;;;;;;;;;5061558;28;20408;-60
2023/05/09 03:06:54;;;;;;;52.03;26.52;;;;;;;;;;5061476;28;20127;-59
2023/05/09 03:09:20;;;;;;;50.08;26.50;;;;;;;;;;5060631;28;20152;-59
2023/05/09 03:11:47;;;;;;;51.60;26.33;;;;;;;;;;5060676;28;20053;-58
2023/05/09 03:14:14;;;;;;;49.58;27.25;;;;;;;;;;5061140;28;20140;-60
2023/05/09 03:16:40;;;;;;;56.15;27.75;;;;;;;;;;5060988;28;20049;-59
2023/05/09 03:19:06;;;;;;;58.25;27.80;;;;;;;;;;5060860;28;20060;-60
2023/05/09 03:21:33;;;;;;;46.08;25.73;;;;;;;;;;5060702;28;20041;-58
2023/05/09 03:23:59;;;;;;;55.55;28.30;;;;;;;;;;5065016;28;20071;-59
2023/05/09 03:26:26;;;;;;;51.83;25.73;;;;;;;;;;5062643;28;20049;-60
2023/05/09 03:28:52;;;;;;;48.78;24.42;;;;;;;;;;5067358;28;20132;-59
2023/05/09 03:31:18;;;;;;;50.03;25.67;;;;;;;;;;5075584;28;20490;-59
2023/05/09 03:33:45;;;;;;;55.10;26.92;;;;;;;;;;5064204;28;20060;-59
2023/05/09 03:36:11;;;;;;;51.92;27.10;;;;;;;;;;5069251;28;20053;-58
2023/05/09 03:38:38;;;;;;;52.22;27.20;;;;;;;;;;5063252;28;20088;-59
2023/05/09 03:41:04;;;;;;;55.78;27.90;;;;;;;;;;5061829;28;20444;-60
2023/05/09 03:43:30;;;;;;;56.38;27.77;;;;;;;;;;5063605;28;20049;-58
2023/05/09 03:45:57;;;;;;;52.55;27.17;;;;;;;;;;5065734;28;20080;-59
2023/05/09 03:48:24;;;;;;;52.90;27.65;;;;;;;;;;5074137;28;20053;-61
2023/05/09 03:50:50;;;;;;;52.72;25.73;;;;;;;;;;5070538;28;20055;-59
2023/05/09 03:53:17;;;;;;;55.00;26.88;;;;;;;;;;5066166;28;20130;-60
2023/05/09 03:55:43;;;;;;;53.25;26.92;;;;;;;;;;5052966;28;20054;-60
2023/05/09 03:58:10;;;;;;;49.15;26.58;;;;;;;;;;5072517;28;20056;-60
2023/05/09 04:00:37;;;;;;;50.70;24.65;;;;;;;;;;5070448;28;20118;-58
2023/05/09 04:03:03;;;;;;;51.15;26.60;;;;;;;;;;5074421;28;20057;-59
2023/05/09 04:05:32;;;;;;;51.38;24.55;;;;;;;;;;5068042;28;20053;-60
2023/05/09 04:07:59;;;;;;;45.92;24.02;;;;;;;;;;5064241;28;20800;-60
2023/05/09 04:10:25;;;;;;;47.10;24.45;;;;;;;;;;5065601;28;20064;-58
2023/05/09 04:12:52;;;;;;;43.25;22.42;;;;;;;;;;5063910;28;20416;-60
2023/05/09 04:15:18;;;;;;;43.55;23.40;;;;;;;;;;5062324;28;20057;-59
2023/05/09 04:17:44;;;;;;;48.22;24.33;;;;;;;;;;5067242;28;20063;-60
2023/05/09 04:20:11;;;;;;;46.92;24.10;;;;;;;;;;5063758;28;20456;-59
2023/05/09 04:22:37;;;;;;;43.03;24.83;;;;;;;;;;5057896;28;20119;-59
2023/05/09 04:25:05;;;;;;;49.38;24.55;;;;;;;;;;5064280;28;20063;-59
2023/05/09 04:27:31;;;;;;;53.47;25.00;;;;;;;;;;5077544;28;20061;-60
2023/05/09 04:29:58;;;;;;;41.58;22.65;;;;;;;;;;5071985;28;20052;-60
2023/05/09 04:32:25;;;;;;;45.38;23.38;;;;;;;;;;5067543;28;20557;-60
2023/05/09 04:34:52;;;;;;;42.58;23.98;;;;;;;;;;5069691;28;20566;-59
2023/05/09 04:37:19;;;;;;;41.50;22.33;;;;;;;;;;5071344;28;20052;-58
2023/05/09 04:39:45;;;;;;;46.80;22.90;;;;;;;;;;5068405;28;20158;-59
2023/05/09 04:42:12;;;;;;;40.35;21.95;;;;;;;;;;5056235;28;20053;-61
2023/05/09 04:44:38;;;;;;;39.03;21.80;;;;;;;;;;5060976;28;20056;-60
2023/05/09 04:47:04;;;;;;;38.08;21.85;;;;;;;;;;5063517;28;20517;-59
2023/05/09 04:49:31;;;;;;;40.05;20.95;;;;;;;;;;5062995;28;20523;-59
2023/05/09 04:51:57;;;;;;;52.25;22.42;;;;;;;;;;5062767;28;20131;-60
2023/05/09 04:54:24;;;;;;;39.13;20.08;;;;;;;;;;5071309;28;20049;-59
2023/05/09 04:56:51;;;;;;;38.53;20.42;;;;;;;;;;5059605;28;20138;-58
2023/05/09 04:59:18;;;;;;;39.72;21.88;;;;;;;;;;5062505;28;20786;-59
2023/05/09 05:01:45;;;;;;;40.55;22.60;;;;;;;;;;5060159;28;20152;-59
2023/05/09 05:04:11;;;;;;;44.40;22.20;;;;;;;;;;5074125;28;20056;-59
2023/05/09 05:06:38;;;;;;;35.92;21.83;;;;;;;;;;5063883;28;20498;-57
2023/05/09 05:09:04;;;;;;;34.72;19.70;;;;;;;;;;5073102;28;20140;-58
2023/05/09 05:11:31;;;;;;;38.35;22.02;;;;;;;;;;5065382;28;20501;-58
2023/05/09 05:13:57;;;;;;;33.33;19.83;;;;;;;;;;5073523;28;20155;-58
2023/05/09 05:16:24;;;;;;;34.15;20.17;;;;;;;;;;5061497;28;20053;-58
2023/05/09 05:18:51;;;;;;;33.13;19.40;;;;;;;;;;5058970;28;20573;-59
2023/05/09 05:21:17;;;;;;;33.25;19.67;;;;;;;;;;5067804;28;20060;-60
2023/05/09 05:23:43;;;;;;;34.75;19.38;;;;;;;;;;5080772;28;20056;-59
2023/05/09 05:26:09;;;;;;;33.58;18.58;;;;;;;;;;5066094;28;20525;-59
2023/05/09 05:28:36;;;;;;;30.45;17.90;;;;;;;;;;5072846;28;20165;-58
2023/05/09 05:31:02;;;;;;;31.13;18.10;;;;;;;;;;5065410;28;20061;-58
2023/05/09 05:33:29;;;;;;;28.17;17.38;;;;;;;;;;5060567;28;20049;-60
2023/05/09 05:35:55;;;;;;;31.73;18.17;;;;;;;;;;5066478;28;20048;-59
2023/05/09 05:38:22;;;;;;;30.45;17.33;;;;;;;;;;5067336;28;20110;-59
2023/05/09 05:40:48;;;;;;;28.92;18.00;;;;;;;;;;5053182;28;20186;-59
2023/05/09 05:43:15;;;;;;;27.00;17.08;;;;;;;;;;5058952;28;20063;-59
2023/05/09 05:45:41;;;;;;;26.45;16.60;;;;;;;;;;5060848;28;20100;-59
2023/05/09 05:48:07;;;;;;;30.45;16.65;;;;;;;;;;5070747;28;20135;-56
2023/05/09 05:50:35;;;;;;;29.40;16.92;;;;;;;;;;5065116;28;20408;-58
2023/05/09 05:53:01;;;;;;;27.35;17.42;;;;;;;;;;5058132;28;20119;-61
2023/05/09 05:55:29;;;;;;;23.60;15.50;;;;;;;;;;5061817;28;20496;-58
2023/05/09 05:57:55;;;;;;;22.85;16.08;;;;;;;;;;5061674;28;20053;-59
2023/05/09 06:00:22;;;;;;;25.33;15.27;;;;;;;;;;5058626;28;20060;-59
2023/05/09 06:02:48;;;;;;;28.02;15.88;;;;;;;;;;5061533;28;20053;-59
2023/05/09 06:05:14;;;;;;;25.63;16.23;;;;;;;;;;5061478;28;20052;-59
2023/05/09 06:07:43;;;;;;;25.67;15.65;;;;;;;;;;5062066;28;20545;-59
2023/05/09 06:10:09;;;;;;;23.67;15.88;;;;;;;;;;5061963;28;20530;-59
2023/05/09 06:12:36;;;;;;;25.25;15.52;;;;;;;;;;5063588;28;20460;-59
2023/05/09 06:15:04;;;;;;;23.33;15.52;;;;;;;;;;5062855;28;20049;-59
2023/05/09 06:17:30;;;;;;;23.65;15.30;;;;;;;;;;5056191;28;20055;-59
2023/05/09 06:20:00;;;;;;;25.20;14.73;;;;;;;;;;5059350;28;20065;-59
2023/05/09 06:22:26;;;;;;;27.02;15.23;;;;;;;;;;5060855;28;20263;-59
2023/05/09 06:24:53;;;;;;;21.65;13.63;;;;;;;;;;5060174;28;20053;-59
2023/05/09 06:27:19;;;;;;;23.70;14.05;;;;;;;;;;5055443;28;20076;-59
2023/05/09 06:29:45;;;;;;;22.25;14.23;;;;;;;;;;5060794;28;20126;-58
2023/05/09 06:32:12;;;;;;;26.70;14.38;;;;;;;;;;5058658;28;20053;-59
2023/05/09 06:34:38;;;;;;;22.40;14.02;;;;;;;;;;5055752;28;20060;-59
2023/05/09 06:37:04;;;;;;;21.83;14.30;;;;;;;;;;5052288;28;20076;-58
2023/05/09 06:39:32;;;;;;;22.23;14.68;;;;;;;;;;5058265;28;20067;-58
2023/05/09 06:41:58;;;;;;;26.17;15.63;;;;;;;;;;5059310;28;20144;-57
2023/05/09 06:44:25;;;;;;;22.17;14.57;;;;;;;;;;5065823;28;20459;-59
2023/05/09 06:46:51;;;;;;;20.77;13.70;;;;;;;;;;5054042;28;20510;-59
2023/05/09 06:49:18;;;;;;;22.45;15.20;;;;;;;;;;5064259;28;20729;-58
2023/05/09 06:51:44;;;;;;;24.17;14.15;;;;;;;;;;5065695;28;20057;-59
2023/05/09 06:54:11;;;;;;;20.27;14.75;;;;;;;;;;5060851;28;20469;-59
2023/05/09 06:56:37;;;;;;;24.10;15.48;;;;;;;;;;5061058;28;20068;-59
2023/05/09 06:59:03;;;;;;;26.63;14.82;;;;;;;;;;5062214;28;20053;-60
2023/05/09 07:01:30;;;;;;;24.73;14.68;;;;;;;;;;5064304;28;20084;-58
2023/05/09 07:03:58;;;;;;;23.63;15.20;;;;;;;;;;5065940;28;20064;-59
2023/05/09 07:06:24;;;;;;;24.85;15.95;;;;;;;;;;5065525;28;20084;-59
2023/05/09 07:08:50;;;;;;;24.88;15.57;;;;;;;;;;5065518;28;20183;-57
2023/05/09 07:11:17;;;;;;;22.77;14.48;;;;;;;;;;5065427;28;20053;-59
2023/05/09 07:13:43;;;;;;;23.55;15.57;;;;;;;;;;5063905;28;20604;-58
2023/05/09 07:16:10;;;;;;;28.65;15.90;;;;;;;;;;5065369;28;20152;-57
2023/05/09 07:18:36;;;;;;;24.95;16.08;;;;;;;;;;5063474;28;20067;-59
2023/05/09 07:21:03;;;;;;;22.50;15.38;;;;;;;;;;5063149;28;20083;-59
2023/05/09 07:23:29;;;;;;;22.40;15.25;;;;;;;;;;5064522;28;20053;-58
2023/05/09 07:25:57;;;;;;;24.60;15.93;;;;;;;;;;5066031;28;20053;-58
2023/05/09 07:28:24;;;;;;;25.38;16.08;;;;;;;;;;5064521;28;20095;-58
2023/05/09 07:30:51;;;;;;;23.67;15.50;;;;;;;;;;5060503;28;20060;-59
2023/05/09 07:33:17;;;;;;;26.38;16.75;;;;;;;;;;5057385;28;20251;-59
2023/05/09 07:35:43;;;;;;;24.13;17.05;;;;;;;;;;5064170;28;20462;-59
2023/05/09 07:38:10;;;;;;;22.00;15.38;;;;;;;;;;5064078;28;20652;-59
2023/05/09 07:40:37;;;;;;;23.42;15.48;;;;;;;;;;5064226;28;20064;-60
2023/05/09 07:43:04;;;;;;;24.27;16.10;;;;;;;;;;5064783;28;20617;-60
2023/05/09 07:45:30;;;;;;;27.25;15.95;;;;;;;;;;5061967;28;20053;-57
2023/05/09 07:47:56;;;;;;;22.02;15.48;;;;;;;;;;5064316;28;20048;-58
2023/05/09 07:50:23;;;;;;;25.30;15.60;;;;;;;;;;5064349;28;20152;-58
2023/05/09 07:52:50;;;;;;;23.15;14.70;;;;;;;;;;5066898;28;20075;-59
2023/05/09 07:55:17;;;;;;;27.33;15.93;;;;;;;;;;5063188;28;20061;-57
2023/05/09 07:57:43;;;;;;;22.77;14.60;;;;;;;;;;5078487;28;20048;-58
2023/05/09 08:00:10;;;;;;;27.92;17.02;;;;;;;;;;5063684;28;20052;-59
2023/05/09 08:02:36;;;;;;;27.88;16.00;;;;;;;;;;5063879;28;20785;-59
2023/05/09 08:05:03;;;;;;;30.10;15.43;;;;;;;;;;5063678;28;20060;-56
2023/05/09 08:07:30;;;;;;;23.35;15.40;;;;;;;;;;5064387;28;20073;-57
2023/05/09 08:09:56;;;;;;;29.05;14.88;;;;;;;;;;5065329;28;20204;-59
2023/05/09 08:12:23;;;;;;;23.80;16.33;;;;;;;;;;5063808;28;20139;-58
2023/05/09 08:14:49;;;;;;;23.40;14.80;;;;;;;;;;5062196;28;20083;-57
2023/05/09 08:17:16;;;;;;;23.02;15.57;;;;;;;;;;5064181;28;20081;-58
2023/05/09 08:19:42;;;;;;;24.88;14.63;;;;;;;;;;5063376;28;20057;-59
2023/05/09 08:22:14;;;;;;;20.60;14.20;;;;;;;;;;5064786;28;20067;-57
2023/05/09 08:24:41;;;;;;;22.63;14.68;;;;;;;;;;5063308;28;20435;-59
2023/05/09 08:27:07;;;;;;;21.77;14.98;;;;;;;;;;5060153;28;20049;-59
2023/05/09 08:29:34;;;;;;;20.13;13.88;;;;;;;;;;5060498;28;20510;-57
2023/05/09 08:32:00;;;;;;;18.27;13.75;;;;;;;;;;5061349;28;20467;-58
2023/05/09 08:34:26;;;;;;;17.05;13.35;;;;;;;;;;5078106;28;20487;-57
2023/05/09 08:36:53;;;;;;;20.83;13.57;;;;;;;;;;5063216;28;20123;-57
2023/05/09 08:39:19;;;;;;;20.58;12.80;;;;;;;;;;5064206;28;20049;-58
2023/05/09 08:41:45;;;;;;;18.23;12.32;;;;;;;;;;5062420;28;20119;-57
2023/05/09 08:44:12;;;;;;;16.23;11.63;;;;;;;;;;5058211;28;20050;-57
2023/05/09 08:46:41;;;;;;;16.50;11.77;;;;;;;;;;5067287;28;20539;-58
2023/05/09 08:49:07;;;;;;;14.95;11.32;;;;;;;;;;5078945;28;20482;-58
2023/05/09 08:51:34;;;;;;;14.35;10.82;;;;;;;;;;5063737;28;20578;-56
2023/05/09 08:54:01;;;;;;;15.25;10.75;;;;;;;;;;5062465;28;20052;-59
2023/05/09 08:56:29;;;;;;;14.75;10.18;;;;;;;;;;5063653;28;20053;-57
2023/05/09 08:58:55;;;;;;;11.80;9.32;;;;;;;;;;5065148;28;20514;-59
2023/05/09 09:01:22;;;;;;;12.80;9.15;;;;;;;;;;5067239;28;20110;-58
2023/05/09 09:03:49;;;;;;;10.73;8.68;;;;;;;;;;5041569;28;20135;-60
2023/05/09 09:06:16;;;;;;;11.25;8.57;;;;;;;;;;5059925;28;20059;-56
2023/05/09 09:08:43;;;;;;;10.88;8.90;;;;;;;;;;5058419;28;20053;-55
2023/05/09 09:11:10;;;;;;;11.02;9.02;;;;;;;;;;5052764;28;20504;-60
2023/05/09 09:13:39;;;;;;;13.50;9.18;;;;;;;;;;5043437;28;20144;-59
2023/05/09 09:16:08;;;;;;;15.50;8.32;;;;;;;;;;5062080;28;20536;-58
2023/05/09 09:18:35;;;;;;;10.75;8.50;;;;;;;;;;5060522;28;20080;-59
2023/05/09 09:21:05;;;;;;;13.50;8.88;;;;;;;;;;5062567;28;20573;-58
2023/05/09 09:23:31;;;;;;;11.20;8.52;;;;;;;;;;5055368;28;20046;-57
2023/05/09 09:26:01;;;;;;;12.80;8.50;;;;;;;;;;5043856;28;20137;-55
2023/05/09 09:28:28;;;;;;;10.52;8.55;;;;;;;;;;5061110;28;20064;-59
2023/05/09 09:30:55;;;;;;;10.55;8.93;;;;;;;;;;5061199;28;20191;-58
2023/05/09 09:33:22;;;;;;;14.18;8.75;;;;;;;;;;5062922;28;20053;-59
2023/05/09 09:35:50;;;;;;;13.40;8.43;;;;;;;;;;5063025;28;20057;-59
2023/05/09 09:38:18;;;;;;;15.95;9.02;;;;;;;;;;5061717;28;20057;-59
2023/05/09 09:40:50;;;;;;;10.35;8.52;;;;;;;;;;5062467;28;20521;-58
2023/05/09 09:43:16;;;;;;;9.93;8.50;;;;;;;;;;5057284;28;20464;-57
2023/05/09 09:45:43;;;;;;;10.90;8.70;;;;;;;;;;5065183;28;20123;-57
2023/05/09 09:48:10;;;;;;;9.85;8.15;;;;;;;;;;5080363;28;20477;-54
2023/05/09 09:50:36;;;;;;;9.48;8.27;;;;;;;;;;5061648;28;20057;-57
2023/05/09 09:53:02;;;;;;;12.68;7.95;;;;;;;;;;5049554;28;20058;-57
2023/05/09 09:55:30;;;;;;;13.85;9.02;;;;;;;;;;5057973;28;20060;-55
2023/05/09 09:57:57;;;;;;;17.75;9.18;;;;;;;;;;5063631;28;20053;-57
2023/05/09 10:00:26;;;;;;;13.70;9.27;;;;;;;;;;5065331;28;20045;-56
2023/05/09 10:02:54;;;;;;;9.65;7.60;;;;;;;;;;5051038;28;20084;-57
2023/05/09 10:05:21;;;;;;;11.27;7.45;;;;;;;;;;5062436;28;20461;-58
2023/05/09 10:07:56;;;;;;;9.20;6.97;;;;;;;;;;5061689;28;20419;-59
2023/05/09 10:10:25;;;;;;;10.60;7.78;;;;;;;;;;5061558;28;20136;-56
2023/05/09 10:12:52;;;;;;;9.75;6.93;;;;;;;;;;5062815;28;20139;-57
2023/05/09 10:15:20;;;;;;;9.23;7.43;;;;;;;;;;5062746;28;20057;-57
2023/05/09 10:17:49;;;;;;;10.02;7.88;;;;;;;;;;5061862;28;20056;-57
2023/05/09 10:20:16;;;;;;;11.02;7.88;;;;;;;;;;5062960;28;20059;-56
2023/05/09 10:22:42;;;;;;;10.82;7.88;;;;;;;;;;5062148;28;20053;-56
2023/05/09 10:25:19;;;;;;;8.80;7.90;;;;;;;;;;5062404;28;20499;-57
2023/05/09 10:27:47;;;;;;;8.27;7.13;;;;;;;;;;5077014;28;20151;-57
2023/05/09 10:30:27;;;;;;;10.07;8.15;;;;;;;;;;5058502;28;20057;-57
2023/05/09 10:32:53;;;;;;;12.23;7.70;;;;;;;;;;5060367;28;20060;-57
2023/05/09 10:35:23;;;;;;;8.95;7.70;;;;;;;;;;5060760;28;20675;-53
2023/05/09 10:37:51;;;;;;;8.55;7.55;;;;;;;;;;5061577;28;20115;-58
2023/05/09 10:40:18;;;;;;;10.68;7.80;;;;;;;;;;5061815;28;20563;-58
2023/05/09 10:42:46;;;;;;;10.68;7.47;;;;;;;;;;5061677;28;20531;-57
2023/05/09 10:45:13;;;;;;;9.60;7.90;;;;;;;;;;5056666;28;20126;-58
2023/05/09 10:47:40;;;;;;;9.25;7.68;;;;;;;;;;5062086;28;20056;-58
2023/05/09 10:50:07;;;;;;;10.77;7.82;;;;;;;;;;5062835;28;20210;-57
2023/05/09 10:52:33;;;;;;;11.15;7.38;;;;;;;;;;5061348;28;20637;-56
2023/05/09 10:55:03;;;;;;;9.77;8.48;;;;;;;;;;5061404;28;20049;-56
2023/05/09 10:57:30;;;;;;;8.05;7.10;;;;;;;;;;5059880;28;20057;-56
2023/05/09 10:59:58;;;;;;;11.30;8.00;;;;;;;;;;5061611;28;20144;-57
2023/05/09 11:02:28;;;;;;;8.65;7.47;;;;;;;;;;5056215;28;20054;-55
2023/05/09 11:05:13;;;;;;;10.63;7.75;;;;;;;;;;5061380;28;20084;-58
2023/05/09 11:07:40;;;;;;;13.55;8.00;;;;;;;;;;5061185;28;20138;-58
2023/05/09 11:10:13;;;;;;;9.45;6.85;;;;;;;;;;5061936;28;20057;-57
2023/05/09 11:12:54;;;;;;;8.10;6.80;;;;;;;;;;5059914;28;20491;-56
2023/05/09 11:15:23;;;;;;;9.60;6.20;;;;;;;;;;5061472;28;20470;-58
2023/05/09 11:18:03;;;;;;;8.55;7.03;;;;;;;;;;5060527;28;20428;-58
2023/05/09 11:20:32;;;;;;;7.68;6.88;;;;;;;;;;5059961;28;20080;-57
2023/05/09 11:22:59;;;;;;;8.80;7.47;;;;;;;;;;5062082;28;20077;-55
2023/05/09 11:25:27;;;;;;;8.45;7.28;;;;;;;;;;5062001;28;20550;-58
2023/05/09 11:28:00;;;;;;;10.68;8.27;;;;;;;;;;5060447;28;20057;-56
2023/05/09 11:30:39;;;;;;;8.25;7.45;;;;;;;;;;5076739;28;20505;-56
2023/05/09 11:33:19;;;;;;;10.98;7.07;;;;;;;;;;5052774;28;20054;-57
2023/05/09 11:35:47;;;;;;;9.18;7.53;;;;;;;;;;5060682;28;20124;-57
2023/05/09 11:38:19;;;;;;;10.85;7.15;;;;;;;;;;5061827;28;20053;-57
2023/05/09 11:40:45;;;;;;;7.43;6.60;;;;;;;;;;5060499;28;20507;-57
2023/05/09 11:43:12;;;;;;;7.07;6.15;;;;;;;;;;5066806;28;20424;-58
2023/05/09 11:45:39;;;;;;;9.55;7.13;;;;;;;;;;5081877;28;20055;-56
2023/05/09 11:48:09;;;;;;;10.63;6.85;;;;;;;;;;5067810;28;20478;-56
2023/05/09 11:50:35;;;;;;;9.65;6.55;;;;;;;;;;5065690;28;20500;-57
2023/05/09 11:53:02;;;;;;;9.98;7.25;;;;;;;;;;5064235;28;20512;-57
2023/05/09 11:55:29;;;;;;;9.52;7.07;;;;;;;;;;5066672;28;20518;-56
2023/05/09 11:57:55;;;;;;;8.27;7.00;;;;;;;;;;5065184;28;20508;-56
2023/05/09 12:00:23;;;;;;;9.30;8.10;;;;;;;;;;5064561;28;20057;-54
2023/05/09 12:02:50;;;;;;;14.57;7.63;;;;;;;;;;5065039;28;20057;-57
2023/05/09 12:05:18;;;;;;;8.55;6.80;;;;;;;;;;5061202;28;20049;-56
2023/05/09 12:07:45;;;;;;;7.68;6.13;;;;;;;;;;5063857;28;20079;-57
2023/05/09 12:10:21;;;;;;;7.65;6.20;;;;;;;;;;5064885;28;20528;-58
2023/05/09 12:12:49;;;;;;;7.75;6.95;;;;;;;;;;5066106;28;20057;-55
2023/05/09 12:15:15;;;;;;;8.68;6.40;;;;;;;;;;5062602;28;20456;-58
2023/05/09 12:17:43;;;;;;;7.82;5.80;;;;;;;;;;5067248;28;20083;-57
2023/05/09 12:20:10;;;;;;;10.27;6.50;;;;;;;;;;5064086;28;20064;-58
2023/05/09 12:22:36;;;;;;;9.52;6.53;;;;;;;;;;5063710;28;20060;-58
2023/05/09 12:25:06;;;;;;;8.13;6.95;;;;;;;;;;5059542;28;20053;-56
2023/05/09 12:27:34;;;;;;;8.27;6.22;;;;;;;;;;5055830;28;20092;-56
2023/05/09 12:30:00;;;;;;;22.50;6.47;;;;;;;;;;5063596;28;20085;-56
2023/05/09 12:32:31;;;;;;;9.82;5.50;;;;;;;;;;5064057;28;20163;-54
2023/05/09 12:34:59;;;;;;;9.93;5.35;;;;;;;;;;5063101;28;20059;-56
2023/05/09 12:37:25;;;;;;;8.65;5.35;;;;;;;;;;5063537;28;20140;-56
2023/05/09 12:40:11;;;;;;;5.65;4.93;;;;;;;;;;5063579;28;20056;-56
2023/05/09 12:42:41;;;;;;;6.10;4.65;;;;;;;;;;5059822;28;20059;-56
2023/05/09 12:45:08;;;;;;;7.15;5.07;;;;;;;;;;5057921;28;20128;-57
2023/05/09 12:47:37;;;;;;;5.72;4.80;;;;;;;;;;5063259;28;20084;-54
2023/05/09 12:50:05;;;;;;;7.30;5.22;;;;;;;;;;5045309;28;20580;-56
2023/05/09 12:52:41;;;;;;;6.10;4.68;;;;;;;;;;5063950;28;20106;-56
2023/05/09 12:55:24;;;;;;;6.82;5.43;;;;;;;;;;5064361;28;20075;-56
2023/05/09 12:57:58;;;;;;;6.45;5.55;;;;;;;;;;5062807;28;20053;-55
2023/05/09 13:00:25;;;;;;;7.50;5.38;;;;;;;;;;5063905;28;20148;-56
2023/05/09 13:02:51;;;;;;;6.93;6.15;;;;;;;;;;5077326;28;20053;-55
2023/05/09 13:05:19;;;;;;;7.32;6.20;;;;;;;;;;5062667;28;20072;-56
2023/05/09 13:07:46;;;;;;;13.90;5.95;;;;;;;;;;5064032;28;20084;-56
2023/05/09 13:10:14;;;;;;;8.88;6.90;;;;;;;;;;5063342;28;20053;-56
2023/05/09 13:12:43;;;;;;;8.95;6.85;;;;;;;;;;5063077;28;20883;-57
2023/05/09 13:15:10;;;;;;;9.18;7.28;;;;;;;;;;5063811;28;20056;-53
2023/05/09 13:17:37;;;;;;;10.48;7.40;;;;;;;;;;5061911;28;20145;-55
2023/05/09 13:20:04;;;;;;;9.15;6.88;;;;;;;;;;5063586;28;20061;-56
2023/05/09 13:22:31;;;;;;;7.82;6.63;;;;;;;;;;5061774;28;20057;-54
2023/05/09 13:24:57;;;;;;;7.93;7.13;;;;;;;;;;5061309;28;20053;-55
2023/05/09 13:27:24;;;;;;;9.77;6.93;;;;;;;;;;5065255;28;20049;-53
2023/05/09 13:29:50;;;;;;;8.73;6.60;;;;;;;;;;5056352;28;20154;-56
2023/05/09 13:32:16;;;;;;;7.30;5.68;;;;;;;;;;5062672;28;20467;-57
2023/05/09 13:34:43;;;;;;;10.38;5.22;;;;;;;;;;5059050;28;20530;-53
2023/05/09 13:37:09;;;;;;;7.15;5.30;;;;;;;;;;5063515;28;20060;-55
2023/05/09 13:39:36;;;;;;;6.20;5.07;;;;;;;;;;5062447;28;20077;-55
2023/05/09 13:42:02;;;;;;;5.60;5.07;;;;;;;;;;5062308;28;20599;-56
2023/05/09 13:44:29;;;;;;;5.28;4.78;;;;;;;;;;5056447;28;20143;-55
2023/05/09 13:46:57;;;;;;;5.35;4.63;;;;;;;;;;5063318;28;20053;-57
2023/05/09 13:49:24;;;;;;;4.90;4.35;;;;;;;;;;5061765;28;20111;-57
2023/05/09 13:51:51;;;;;;;7.35;5.00;;;;;;;;;;5058817;28;20057;-57
2023/05/09 13:54:18;;;;;;;5.15;4.65;;;;;;;;;;5042103;28;20463;-56
2023/05/09 13:56:44;;;;;;;5.25;4.75;;;;;;;;;;5050885;28;20535;-57
2023/05/09 13:59:11;;;;;;;5.57;4.68;;;;;;;;;;5062949;28;20499;-54
2023/05/09 14:01:37;;;;;;;7.43;5.18;;;;;;;;;;5061615;28;20060;-57
2023/05/09 14:04:04;;;;;;;6.25;4.65;;;;;;;;;;5053413;28;20053;-54
2023/05/09 14:06:30;;;;;;;7.43;4.70;;;;;;;;;;5042555;28;20488;-57
2023/05/09 14:08:57;;;;;;;5.30;4.53;;;;;;;;;;5046135;28;20053;-56
2023/05/09 14:11:24;;;;;;;5.72;4.75;;;;;;;;;;5059135;28;20053;-55
2023/05/09 14:13:54;;;;;;;6.40;3.95;;;;;;;;;;5061831;28;20064;-56
2023/05/09 14:16:20;;;;;;;4.47;4.07;;;;;;;;;;5062413;28;20052;-55
2023/05/09 14:18:47;;;;;;;4.93;4.25;;;;;;;;;;5062217;28;20053;-55
2023/05/09 14:21:13;;;;;;;4.22;3.80;;;;;;;;;;5061277;28;20177;-57
2023/05/09 14:23:40;;;;;;;4.45;3.90;;;;;;;;;;5061545;28;20052;-57
2023/05/09 16:24:30;;;;;;;4.47;2.58;;;;;;;;;;5155354;27;21141;-54
2023/05/09 16:26:57;;;;;;;3.95;2.38;;;;;;;;;;5151470;27;20059;-55